Time;durP1;ratioP1;P1;durP2;ratioP2;P2;SDS_P1;SDS_P2;PMS_P1;PMS_P2;Temp;Humidity;BMP_temperature;BMP_pressure;BME280_temperature;BME280_humidity;BME280_pressure;Samples;Min_cycle;Max_cycle;Signal;HPM_P1;HPM_P2
2024/03/21 00:00:11;;;;;;;16.65;10.50;;;;;;;;;;5046627;28;20041;-76
2024/03/21 00:02:46;;;;;;;15.88;9.02;;;;;;;;;;5030277;28;20040;-76
2024/03/21 00:05:12;;;;;;;14.95;9.75;;;;;;;;;;5044746;28;20029;-76
2024/03/21 00:07:37;;;;;;;15.23;9.32;;;;;;;;;;5042518;28;20481;-76
2024/03/21 00:10:03;;;;;;;17.33;9.45;;;;;;;;;;5045434;28;20401;-76
2024/03/21 00:12:29;;;;;;;20.67;12.40;;;;;;;;;;5049882;28;20021;-76
2024/03/21 00:14:54;;;;;;;18.23;11.57;;;;;;;;;;5046562;28;20171;-76
2024/03/21 00:17:20;;;;;;;21.63;10.90;;;;;;;;;;5045252;28;20661;-76
2024/03/21 00:19:45;;;;;;;17.35;10.23;;;;;;;;;;5046463;28;20040;-76
2024/03/21 00:22:10;;;;;;;14.82;10.02;;;;;;;;;;5043578;28;20072;-77
2024/03/21 00:24:38;;;;;;;16.17;10.35;;;;;;;;;;5033615;28;20131;-76
2024/03/21 00:27:04;;;;;;;19.52;11.05;;;;;;;;;;5048110;28;20128;-77
2024/03/21 00:29:30;;;;;;;16.73;10.13;;;;;;;;;;5048317;28;20493;-76
2024/03/21 00:31:55;;;;;;;17.13;10.55;;;;;;;;;;5043524;28;20032;-76
2024/03/21 00:34:20;;;;;;;19.58;10.75;;;;;;;;;;5044311;28;20025;-77
2024/03/21 00:36:45;;;;;;;18.63;11.40;;;;;;;;;;5043936;28;20366;-76
2024/03/21 00:39:15;;;;;;;16.70;9.57;;;;;;;;;;5047922;28;20417;-76
2024/03/21 00:41:40;;;;;;;17.05;9.57;;;;;;;;;;5048744;28;20060;-76
2024/03/21 00:44:07;;;;;;;22.20;12.35;;;;;;;;;;5044432;28;20057;-76
2024/03/21 00:46:33;;;;;;;20.17;11.70;;;;;;;;;;5025564;28;20039;-76
2024/03/21 00:48:58;;;;;;;19.27;10.30;;;;;;;;;;5041015;28;20039;-76
2024/03/21 00:51:23;;;;;;;19.55;9.57;;;;;;;;;;5046808;28;20037;-76
2024/03/21 00:53:48;;;;;;;17.83;12.13;;;;;;;;;;5048942;28;20074;-76
2024/03/21 00:56:13;;;;;;;16.70;10.38;;;;;;;;;;5046646;28;20021;-74
2024/03/21 00:58:39;;;;;;;16.73;9.70;;;;;;;;;;5046089;28;20401;-74
2024/03/21 01:01:04;;;;;;;15.27;9.82;;;;;;;;;;5044614;28;20034;-73
2024/03/21 01:03:30;;;;;;;16.20;9.75;;;;;;;;;;5042835;28;20025;-74
2024/03/21 01:05:55;;;;;;;18.23;10.98;;;;;;;;;;5046510;28;20028;-74
2024/03/21 01:08:21;;;;;;;20.48;11.30;;;;;;;;;;5048440;28;20033;-74
2024/03/21 01:10:47;;;;;;;20.00;11.60;;;;;;;;;;5046691;28;20032;-74
2024/03/21 01:13:12;;;;;;;16.60;10.77;;;;;;;;;;5043945;28;20030;-74
2024/03/21 01:15:37;;;;;;;16.77;10.48;;;;;;;;;;5043375;28;20033;-74
2024/03/21 01:18:06;;;;;;;17.48;10.32;;;;;;;;;;5040105;28;20053;-74
2024/03/21 01:20:32;;;;;;;17.92;10.27;;;;;;;;;;5047449;28;20041;-74
2024/03/21 01:22:58;;;;;;;18.25;10.65;;;;;;;;;;5046223;28;20040;-75
2024/03/21 01:25:23;;;;;;;19.13;10.82;;;;;;;;;;5046387;28;20040;-75
2024/03/21 01:27:48;;;;;;;15.95;9.75;;;;;;;;;;5043831;28;20029;-76
2024/03/21 01:30:14;;;;;;;18.42;11.25;;;;;;;;;;5042585;28;20037;-76
2024/03/21 01:32:39;;;;;;;18.95;10.77;;;;;;;;;;5042334;28;20104;-76
2024/03/21 01:35:06;;;;;;;17.52;11.43;;;;;;;;;;5047683;28;20045;-76
2024/03/21 01:37:32;;;;;;;16.98;10.90;;;;;;;;;;5025326;28;20032;-76
2024/03/21 01:39:57;;;;;;;19.55;12.00;;;;;;;;;;5046093;28;20108;-76
2024/03/21 01:42:22;;;;;;;19.77;11.48;;;;;;;;;;5032194;28;20082;-76
2024/03/21 01:45:00;;;;;;;17.65;10.80;;;;;;;;;;5040713;28;20816;-76
2024/03/21 01:47:25;;;;;;;16.58;10.48;;;;;;;;;;5046154;28;20045;-76
2024/03/21 01:49:51;;;;;;;17.42;9.63;;;;;;;;;;5030362;28;20112;-76
2024/03/21 01:52:16;;;;;;;14.75;9.38;;;;;;;;;;5045155;28;20036;-76
2024/03/21 01:54:42;;;;;;;16.33;10.20;;;;;;;;;;5044541;28;20028;-76
2024/03/21 01:57:08;;;;;;;20.15;10.80;;;;;;;;;;5041691;28;20021;-76
2024/03/21 01:59:33;;;;;;;20.30;12.73;;;;;;;;;;5041826;28;20095;-76
2024/03/21 02:01:58;;;;;;;21.40;12.93;;;;;;;;;;5045581;28;20029;-76
2024/03/21 02:04:24;;;;;;;19.90;12.05;;;;;;;;;;5046983;28;20106;-76
2024/03/21 02:06:49;;;;;;;17.67;11.25;;;;;;;;;;5045238;28;20091;-76
2024/03/21 02:09:21;;;;;;;19.25;11.35;;;;;;;;;;5041648;28;20029;-76
2024/03/21 02:11:46;;;;;;;18.92;11.18;;;;;;;;;;5044328;28;20117;-76
2024/03/21 02:14:13;;;;;;;16.65;10.77;;;;;;;;;;5043501;28;20079;-76
2024/03/21 02:16:38;;;;;;;20.77;12.57;;;;;;;;;;5048651;28;20036;-76
2024/03/21 02:19:03;;;;;;;19.95;10.80;;;;;;;;;;5045343;28;20026;-76
2024/03/21 02:24:12;;;;;;;16.38;10.30;;;;;;;;;;5041531;28;20131;-76
2024/03/21 02:26:37;;;;;;;22.17;12.65;;;;;;;;;;5041604;28;20108;-76
2024/03/21 02:29:05;;;;;;;20.25;11.48;;;;;;;;;;5045630;28;20038;-76
2024/03/21 02:31:30;;;;;;;21.65;12.68;;;;;;;;;;5051845;28;20031;-76
2024/03/21 02:33:55;;;;;;;24.05;12.88;;;;;;;;;;5048643;28;20029;-76
2024/03/21 02:36:20;;;;;;;19.17;11.07;;;;;;;;;;5048390;28;20033;-76
2024/03/21 02:38:46;;;;;;;16.58;9.73;;;;;;;;;;5046074;28;20440;-76
2024/03/21 02:41:11;;;;;;;16.85;10.23;;;;;;;;;;5044205;28;20092;-76
2024/03/21 02:43:36;;;;;;;17.17;10.02;;;;;;;;;;5052386;28;20057;-76
2024/03/21 02:46:02;;;;;;;16.67;9.32;;;;;;;;;;5050812;28;20096;-76
2024/03/21 02:48:27;;;;;;;16.92;10.10;;;;;;;;;;5049855;28;20029;-76
2024/03/21 02:50:53;;;;;;;17.00;10.48;;;;;;;;;;5046315;28;20033;-76
2024/03/21 02:53:18;;;;;;;18.33;10.27;;;;;;;;;;5045532;28;20037;-76
2024/03/21 02:55:43;;;;;;;16.20;9.90;;;;;;;;;;5045664;28;20028;-76
2024/03/21 02:58:08;;;;;;;18.65;10.93;;;;;;;;;;5051507;28;20108;-76
2024/03/21 03:00:33;;;;;;;21.83;11.63;;;;;;;;;;5051430;28;20037;-76
2024/03/21 03:02:59;;;;;;;15.18;10.32;;;;;;;;;;5046786;28;20024;-76
2024/03/21 03:05:24;;;;;;;16.40;9.95;;;;;;;;;;5047570;28;20116;-76
2024/03/21 03:07:49;;;;;;;15.65;10.57;;;;;;;;;;5043959;28;20112;-76
2024/03/21 03:10:15;;;;;;;17.35;10.05;;;;;;;;;;5033300;28;21033;-76
2024/03/21 03:12:40;;;;;;;20.27;9.82;;;;;;;;;;5051318;28;20558;-76
2024/03/21 03:15:05;;;;;;;18.88;10.82;;;;;;;;;;5048155;28;20086;-76
2024/03/21 03:17:31;;;;;;;18.55;10.48;;;;;;;;;;5047931;28;20036;-76
2024/03/21 03:19:56;;;;;;;20.52;11.85;;;;;;;;;;5044679;28;20398;-76
2024/03/21 03:22:21;;;;;;;16.63;9.75;;;;;;;;;;5044652;28;20037;-76
2024/03/21 03:24:46;;;;;;;19.55;11.23;;;;;;;;;;5048437;28;20025;-76
2024/03/21 03:27:11;;;;;;;18.10;10.57;;;;;;;;;;5050325;28;20033;-76
2024/03/21 03:29:36;;;;;;;16.42;9.35;;;;;;;;;;5049668;28;20108;-76
2024/03/21 03:32:03;;;;;;;16.80;10.52;;;;;;;;;;5027489;28;20065;-76
2024/03/21 03:37:12;;;;;;;19.10;11.48;;;;;;;;;;5046228;28;20025;-76
2024/03/21 03:39:37;;;;;;;22.75;12.73;;;;;;;;;;5051944;28;20028;-76
2024/03/21 03:42:03;;;;;;;18.33;11.60;;;;;;;;;;5048529;28;20033;-76
2024/03/21 03:44:28;;;;;;;19.38;11.65;;;;;;;;;;5048017;28;20032;-76
2024/03/21 03:46:53;;;;;;;19.27;11.25;;;;;;;;;;5045132;28;20029;-76
2024/03/21 03:49:19;;;;;;;16.10;10.48;;;;;;;;;;5044799;28;20115;-76
2024/03/21 03:51:44;;;;;;;18.77;12.52;;;;;;;;;;5044481;28;20029;-76
2024/03/21 03:54:09;;;;;;;19.63;12.18;;;;;;;;;;5049426;28;20033;-76
2024/03/21 03:56:34;;;;;;;20.98;11.50;;;;;;;;;;5049632;28;20025;-76
2024/03/21 03:58:59;;;;;;;20.20;12.02;;;;;;;;;;5045846;28;20029;-76
2024/03/21 04:01:24;;;;;;;19.20;12.15;;;;;;;;;;5046585;28;20428;-76
2024/03/21 04:03:50;;;;;;;22.90;13.65;;;;;;;;;;5042349;28;20032;-76
2024/03/21 04:06:15;;;;;;;20.73;13.30;;;;;;;;;;5028290;28;20053;-77
2024/03/21 04:08:40;;;;;;;22.15;14.02;;;;;;;;;;5046380;28;20036;-76
2024/03/21 04:11:12;;;;;;;20.40;11.77;;;;;;;;;;5047016;28;20075;-76
2024/03/21 04:13:37;;;;;;;19.92;13.00;;;;;;;;;;5046697;28;20748;-76
2024/03/21 04:16:03;;;;;;;18.38;11.80;;;;;;;;;;5042559;28;20041;-76
2024/03/21 04:18:28;;;;;;;20.77;13.05;;;;;;;;;;5044359;28;20029;-76
2024/03/21 04:20:53;;;;;;;20.02;12.15;;;;;;;;;;5044792;28;20060;-76
2024/03/21 04:23:19;;;;;;;18.27;11.38;;;;;;;;;;5047074;28;20033;-76
2024/03/21 04:25:44;;;;;;;19.30;11.75;;;;;;;;;;5049607;28;20024;-76
2024/03/21 04:28:09;;;;;;;21.23;11.50;;;;;;;;;;5044225;28;20029;-76
2024/03/21 04:30:36;;;;;;;21.27;12.93;;;;;;;;;;5044932;28;20397;-76
2024/03/21 04:33:01;;;;;;;18.80;11.80;;;;;;;;;;5033078;28;20485;-76
2024/03/21 04:35:26;;;;;;;20.75;11.88;;;;;;;;;;5049475;28;20036;-76
2024/03/21 04:37:51;;;;;;;19.42;12.27;;;;;;;;;;5048275;28;20541;-76
2024/03/21 04:40:17;;;;;;;16.52;10.75;;;;;;;;;;5046038;28;20037;-76
2024/03/21 04:42:42;;;;;;;18.55;11.85;;;;;;;;;;5029406;28;20017;-76
2024/03/21 04:45:07;;;;;;;17.77;11.48;;;;;;;;;;5041431;28;20049;-76
2024/03/21 04:47:33;;;;;;;22.02;13.15;;;;;;;;;;5047159;28;20107;-76
2024/03/21 04:49:58;;;;;;;17.52;11.10;;;;;;;;;;5049072;28;20167;-76
2024/03/21 04:52:25;;;;;;;22.58;14.40;;;;;;;;;;5046984;28;20315;-76
2024/03/21 04:54:50;;;;;;;21.95;13.75;;;;;;;;;;5045441;28;20041;-76
2024/03/21 04:57:16;;;;;;;20.60;12.73;;;;;;;;;;5043897;28;20025;-76
2024/03/21 04:59:41;;;;;;;21.33;13.02;;;;;;;;;;5042788;28;20061;-76
2024/03/21 05:02:06;;;;;;;18.65;12.93;;;;;;;;;;5047049;28;20029;-76
2024/03/21 05:04:31;;;;;;;19.95;12.05;;;;;;;;;;5048873;28;20559;-76
2024/03/21 05:06:56;;;;;;;18.40;10.90;;;;;;;;;;5046311;28;20029;-77
2024/03/21 05:09:21;;;;;;;21.60;12.00;;;;;;;;;;5044329;28;20208;-76
2024/03/21 05:11:47;;;;;;;19.67;11.75;;;;;;;;;;5043181;28;20021;-76
2024/03/21 05:14:12;;;;;;;19.75;12.00;;;;;;;;;;5040499;28;20051;-76
2024/03/21 05:16:37;;;;;;;19.30;12.35;;;;;;;;;;5049948;28;20033;-76
2024/03/21 05:19:02;;;;;;;18.63;12.27;;;;;;;;;;5048453;28;20029;-76
2024/03/21 05:21:28;;;;;;;21.65;13.10;;;;;;;;;;5045046;28;20033;-76
2024/03/21 05:23:53;;;;;;;23.52;12.13;;;;;;;;;;5043479;28;20051;-76
2024/03/21 05:26:18;;;;;;;17.95;11.05;;;;;;;;;;5046352;28;20047;-76
2024/03/21 05:28:43;;;;;;;22.45;11.25;;;;;;;;;;5048489;28;20477;-76
2024/03/21 05:31:21;;;;;;;19.30;11.93;;;;;;;;;;5047180;28;20052;-75
2024/03/21 05:33:50;;;;;;;20.10;12.02;;;;;;;;;;5045504;28;20032;-76
2024/03/21 05:36:16;;;;;;;20.60;12.98;;;;;;;;;;5048244;28;20033;-76
2024/03/21 05:38:41;;;;;;;22.67;13.88;;;;;;;;;;5049306;28;20028;-76
2024/03/21 05:41:06;;;;;;;20.83;12.98;;;;;;;;;;5047145;28;20041;-76
2024/03/21 05:43:32;;;;;;;17.10;11.18;;;;;;;;;;5048095;28;20036;-76
2024/03/21 05:45:57;;;;;;;21.15;13.18;;;;;;;;;;5040922;28;20029;-76
2024/03/21 05:48:22;;;;;;;18.65;11.90;;;;;;;;;;5046390;28;20107;-76
2024/03/21 05:50:48;;;;;;;17.10;11.30;;;;;;;;;;5043053;28;20100;-76
2024/03/21 05:53:13;;;;;;;19.73;12.68;;;;;;;;;;5043488;28;20486;-76
2024/03/21 05:55:38;;;;;;;19.42;13.10;;;;;;;;;;5044807;28;20143;-74
2024/03/21 05:58:04;;;;;;;23.40;13.32;;;;;;;;;;5045661;28;20104;-74
2024/03/21 06:00:29;;;;;;;17.75;11.95;;;;;;;;;;5032074;28;20025;-74
2024/03/21 06:02:54;;;;;;;18.45;11.43;;;;;;;;;;5047062;28;20064;-74
2024/03/21 06:05:19;;;;;;;19.58;11.27;;;;;;;;;;5043579;28;20033;-74
2024/03/21 06:07:45;;;;;;;19.00;11.82;;;;;;;;;;5044035;28;20139;-74
2024/03/21 06:10:10;;;;;;;16.60;10.70;;;;;;;;;;5040030;28;20519;-75
2024/03/21 06:12:35;;;;;;;23.80;12.45;;;;;;;;;;5048379;28;20021;-74
2024/03/21 06:15:00;;;;;;;20.83;12.25;;;;;;;;;;5047392;28;20465;-74
2024/03/21 06:17:26;;;;;;;17.98;11.85;;;;;;;;;;5044329;28;20059;-74
2024/03/21 06:19:52;;;;;;;18.02;11.32;;;;;;;;;;5042030;28;20622;-74
2024/03/21 06:22:17;;;;;;;20.38;13.30;;;;;;;;;;5041732;28;20042;-74
2024/03/21 06:24:43;;;;;;;16.45;10.75;;;;;;;;;;5041812;28;20083;-74
2024/03/21 06:27:09;;;;;;;15.88;10.60;;;;;;;;;;5030900;28;20037;-74
2024/03/21 06:29:34;;;;;;;17.83;11.15;;;;;;;;;;5031875;28;20090;-74
2024/03/21 06:32:00;;;;;;;18.15;10.75;;;;;;;;;;5043453;28;20029;-74
2024/03/21 06:34:25;;;;;;;17.17;10.73;;;;;;;;;;5042755;28;20363;-74
2024/03/21 06:36:50;;;;;;;17.50;11.63;;;;;;;;;;5040439;28;20025;-74
2024/03/21 06:39:15;;;;;;;14.57;10.27;;;;;;;;;;5043390;28;20033;-74
2024/03/21 06:41:41;;;;;;;13.20;9.90;;;;;;;;;;5047613;28;20029;-74
2024/03/21 06:44:06;;;;;;;16.83;10.52;;;;;;;;;;5043900;28;20025;-74
2024/03/21 06:46:31;;;;;;;13.68;9.30;;;;;;;;;;5044922;28;20500;-74
2024/03/21 06:48:56;;;;;;;16.30;10.48;;;;;;;;;;5043158;28;20056;-74
2024/03/21 06:51:21;;;;;;;15.15;11.13;;;;;;;;;;5045983;28;20124;-74
2024/03/21 06:53:47;;;;;;;16.35;11.63;;;;;;;;;;5048329;28;20033;-74
2024/03/21 06:56:12;;;;;;;18.15;12.98;;;;;;;;;;5045943;28;20033;-74
2024/03/21 06:58:37;;;;;;;19.85;12.38;;;;;;;;;;5045902;28;20117;-74
2024/03/21 07:01:02;;;;;;;17.02;11.75;;;;;;;;;;5040504;28;20112;-74
2024/03/21 07:03:28;;;;;;;17.17;10.75;;;;;;;;;;5042540;28;20045;-74
2024/03/21 07:05:53;;;;;;;17.10;10.75;;;;;;;;;;5041636;28;20490;-74
2024/03/21 07:08:18;;;;;;;16.25;10.27;;;;;;;;;;5043607;28;20030;-74
2024/03/21 07:10:45;;;;;;;15.20;10.02;;;;;;;;;;5044698;28;20040;-74
2024/03/21 07:13:10;;;;;;;17.92;10.75;;;;;;;;;;5042530;28;20395;-74
2024/03/21 07:15:39;;;;;;;14.65;9.35;;;;;;;;;;5043765;28;20091;-74
2024/03/21 07:18:05;;;;;;;12.30;8.57;;;;;;;;;;5045734;28;20040;-74
2024/03/21 07:20:30;;;;;;;14.25;9.20;;;;;;;;;;5046868;28;20029;-74
2024/03/21 07:22:55;;;;;;;18.50;9.70;;;;;;;;;;5051136;28;20025;-74
2024/03/21 07:25:20;;;;;;;13.82;8.93;;;;;;;;;;5048334;28;20089;-74
2024/03/21 07:27:46;;;;;;;14.30;9.40;;;;;;;;;;5046516;28;20131;-74
2024/03/21 07:30:14;;;;;;;13.45;8.63;;;;;;;;;;5047117;28;20676;-74
2024/03/21 07:32:39;;;;;;;12.10;8.77;;;;;;;;;;5044446;28;20440;-74
2024/03/21 07:35:04;;;;;;;14.25;8.43;;;;;;;;;;5047988;28;20024;-74
2024/03/21 07:37:30;;;;;;;15.07;9.93;;;;;;;;;;5046702;28;20017;-74
2024/03/21 07:39:55;;;;;;;16.15;10.30;;;;;;;;;;5048493;28;20156;-74
2024/03/21 07:42:20;;;;;;;15.13;10.40;;;;;;;;;;5045814;28;20501;-74
2024/03/21 07:44:45;;;;;;;15.20;10.05;;;;;;;;;;5045226;28;20071;-72
2024/03/21 07:47:10;;;;;;;13.52;9.95;;;;;;;;;;5042192;28;20057;-72
2024/03/21 07:49:36;;;;;;;12.90;8.63;;;;;;;;;;5049513;28;20116;-72
2024/03/21 07:52:01;;;;;;;15.80;10.70;;;;;;;;;;5048449;28;20039;-72
2024/03/21 07:54:30;;;;;;;14.02;9.05;;;;;;;;;;5047349;28;20098;-72
2024/03/21 07:56:57;;;;;;;14.55;10.43;;;;;;;;;;5045545;28;20040;-72
2024/03/21 07:59:23;;;;;;;14.60;10.18;;;;;;;;;;5033303;28;20094;-72
2024/03/21 08:01:48;;;;;;;12.93;8.98;;;;;;;;;;5044371;28;20021;-72
2024/03/21 08:04:13;;;;;;;16.50;11.20;;;;;;;;;;5047398;28;20041;-72
2024/03/21 08:06:38;;;;;;;16.35;9.90;;;;;;;;;;5049325;28;20087;-72
2024/03/21 08:09:05;;;;;;;16.77;10.05;;;;;;;;;;5045992;28;20048;-72
2024/03/21 08:11:30;;;;;;;13.05;9.30;;;;;;;;;;5044513;28;20495;-72
2024/03/21 08:13:56;;;;;;;13.10;8.73;;;;;;;;;;5030944;28;20053;-72
2024/03/21 08:16:21;;;;;;;15.65;10.70;;;;;;;;;;5048546;28;20504;-72
2024/03/21 08:18:47;;;;;;;17.10;10.40;;;;;;;;;;5050395;28;20017;-72
2024/03/21 08:21:12;;;;;;;15.07;10.25;;;;;;;;;;5047431;28;20033;-72
2024/03/21 08:23:37;;;;;;;13.15;9.50;;;;;;;;;;5046932;28;20033;-72
2024/03/21 08:26:03;;;;;;;23.33;15.35;;;;;;;;;;5042897;28;20079;-72
2024/03/21 08:28:29;;;;;;;25.33;16.40;;;;;;;;;;5025393;28;20515;-72
2024/03/21 08:30:54;;;;;;;18.30;13.68;;;;;;;;;;5044354;28;20125;-72
2024/03/21 08:33:19;;;;;;;15.77;11.10;;;;;;;;;;5048037;28;20037;-72
2024/03/21 08:35:44;;;;;;;15.63;9.55;;;;;;;;;;5045843;28;20112;-72
2024/03/21 08:38:10;;;;;;;13.35;8.38;;;;;;;;;;5043975;28;20025;-72
2024/03/21 08:40:35;;;;;;;13.68;9.45;;;;;;;;;;5045422;28;20120;-72
2024/03/21 08:43:00;;;;;;;13.13;8.65;;;;;;;;;;5034360;28;20029;-72
2024/03/21 08:45:25;;;;;;;14.15;9.75;;;;;;;;;;5042303;28;20044;-72
2024/03/21 08:47:51;;;;;;;14.32;9.30;;;;;;;;;;5046427;28;20024;-72
2024/03/21 08:50:16;;;;;;;12.85;9.07;;;;;;;;;;5043867;28;20037;-72
2024/03/21 08:52:41;;;;;;;14.27;8.75;;;;;;;;;;5048131;28;20389;-72
2024/03/21 08:55:07;;;;;;;15.05;9.88;;;;;;;;;;5040808;28;20683;-72
2024/03/21 08:57:33;;;;;;;12.77;9.52;;;;;;;;;;5043358;28;20037;-72
2024/03/21 08:59:58;;;;;;;16.25;10.93;;;;;;;;;;5043944;28;20028;-72
2024/03/21 09:02:24;;;;;;;12.68;9.27;;;;;;;;;;5046429;28;20506;-72
2024/03/21 09:04:49;;;;;;;14.48;9.63;;;;;;;;;;5046258;28;20033;-72
2024/03/21 09:07:14;;;;;;;13.63;9.00;;;;;;;;;;5042726;28;20120;-72
2024/03/21 09:09:39;;;;;;;12.15;8.77;;;;;;;;;;5042728;28;20044;-72
2024/03/21 09:12:06;;;;;;;16.20;10.57;;;;;;;;;;5049897;28;20029;-72
2024/03/21 09:14:31;;;;;;;15.75;10.10;;;;;;;;;;5045510;28;20044;-72
2024/03/21 09:16:56;;;;;;;13.70;9.30;;;;;;;;;;5047045;28;20029;-72
2024/03/21 09:19:22;;;;;;;15.82;11.35;;;;;;;;;;5045303;28;20082;-72
2024/03/21 09:21:47;;;;;;;15.02;9.57;;;;;;;;;;5045590;28;20036;-72
2024/03/21 09:24:12;;;;;;;14.48;10.77;;;;;;;;;;5041027;28;20033;-72
2024/03/21 09:26:40;;;;;;;19.60;12.15;;;;;;;;;;5041966;28;20047;-72
2024/03/21 09:29:05;;;;;;;21.20;11.88;;;;;;;;;;5031544;28;20072;-72
2024/03/21 09:31:30;;;;;;;15.35;10.48;;;;;;;;;;5044537;28;20476;-72
2024/03/21 09:33:57;;;;;;;16.50;10.50;;;;;;;;;;5043833;28;20063;-72
2024/03/21 09:36:23;;;;;;;15.73;9.50;;;;;;;;;;5042467;28;20034;-72
2024/03/21 09:38:48;;;;;;;14.23;9.80;;;;;;;;;;5042748;28;20029;-72
2024/03/21 09:41:14;;;;;;;16.75;10.57;;;;;;;;;;5048138;28;20036;-72
2024/03/21 09:43:40;;;;;;;18.95;12.10;;;;;;;;;;5047429;28;20114;-72
2024/03/21 09:46:05;;;;;;;20.70;13.00;;;;;;;;;;5044363;28;20060;-72
2024/03/21 09:48:31;;;;;;;20.05;12.50;;;;;;;;;;5044560;28;20025;-71
2024/03/21 09:50:57;;;;;;;19.85;12.88;;;;;;;;;;5043282;28;20036;-72
2024/03/21 09:53:22;;;;;;;18.50;11.95;;;;;;;;;;5026229;28;20039;-72
2024/03/21 09:55:48;;;;;;;17.63;12.80;;;;;;;;;;5047173;28;20029;-72
2024/03/21 09:58:14;;;;;;;18.00;13.05;;;;;;;;;;5046539;28;20075;-72
2024/03/21 10:00:40;;;;;;;19.00;11.40;;;;;;;;;;5045902;28;20033;-72
2024/03/21 10:03:05;;;;;;;18.35;11.27;;;;;;;;;;5041199;28;20083;-72
2024/03/21 10:05:31;;;;;;;15.60;11.00;;;;;;;;;;5042271;28;20078;-72
2024/03/21 10:07:56;;;;;;;14.82;10.55;;;;;;;;;;5041690;28;20642;-72
2024/03/21 10:10:21;;;;;;;15.10;9.90;;;;;;;;;;5015146;28;20061;-72
2024/03/21 10:12:49;;;;;;;15.85;10.15;;;;;;;;;;5046426;28;20539;-72
2024/03/21 10:15:17;;;;;;;13.75;10.13;;;;;;;;;;5024577;28;20033;-71
2024/03/21 10:17:42;;;;;;;15.88;10.73;;;;;;;;;;5042808;28;20025;-72
2024/03/21 10:20:08;;;;;;;16.63;9.70;;;;;;;;;;5040253;28;20596;-72
2024/03/21 10:22:34;;;;;;;14.23;9.57;;;;;;;;;;5048019;28;20082;-72
2024/03/21 10:25:03;;;;;;;14.05;9.88;;;;;;;;;;5047128;28;20025;-72
2024/03/21 10:27:29;;;;;;;15.68;10.52;;;;;;;;;;5045433;28;20039;-72
2024/03/21 10:29:55;;;;;;;15.07;10.07;;;;;;;;;;5043637;28;20043;-72
2024/03/21 10:32:21;;;;;;;13.43;9.65;;;;;;;;;;5042337;28;20108;-73
2024/03/21 10:34:50;;;;;;;13.20;8.77;;;;;;;;;;5041645;28;20078;-72
2024/03/21 10:37:16;;;;;;;12.20;8.75;;;;;;;;;;5043272;28;20028;-72
2024/03/21 10:39:41;;;;;;;12.02;7.97;;;;;;;;;;5046657;28;20033;-72
2024/03/21 10:42:07;;;;;;;13.63;9.50;;;;;;;;;;5043113;28;20175;-72
2024/03/21 10:44:33;;;;;;;11.32;8.15;;;;;;;;;;5043671;28;20021;-72
2024/03/21 10:46:58;;;;;;;12.65;8.65;;;;;;;;;;5040251;28;20024;-72
2024/03/21 10:49:23;;;;;;;12.18;8.65;;;;;;;;;;5047152;28;20115;-72
2024/03/21 10:51:51;;;;;;;11.90;7.90;;;;;;;;;;5048693;28;20048;-72
2024/03/21 10:54:18;;;;;;;8.77;6.20;;;;;;;;;;5046377;28;20040;-72
2024/03/21 10:56:45;;;;;;;9.50;6.40;;;;;;;;;;5048648;28;20115;-72
2024/03/21 10:59:15;;;;;;;10.93;6.28;;;;;;;;;;5043981;28;20040;-72
2024/03/21 11:01:41;;;;;;;9.60;6.60;;;;;;;;;;5045576;28;20091;-72
2024/03/21 11:04:07;;;;;;;7.43;5.45;;;;;;;;;;5048341;28;20032;-72
2024/03/21 11:06:39;;;;;;;9.57;6.68;;;;;;;;;;5045268;28;20021;-73
2024/03/21 11:09:05;;;;;;;10.23;6.20;;;;;;;;;;5048270;28;20103;-72
2024/03/21 11:11:30;;;;;;;9.43;5.82;;;;;;;;;;5050661;28;20116;-72
2024/03/21 11:14:01;;;;;;;7.85;6.05;;;;;;;;;;5047335;28;20160;-71
2024/03/21 11:16:27;;;;;;;10.80;6.25;;;;;;;;;;5046670;28;20043;-72
2024/03/21 11:18:52;;;;;;;10.88;6.15;;;;;;;;;;5051668;28;20035;-74
2024/03/21 11:21:18;;;;;;;11.00;6.32;;;;;;;;;;5046362;28;20459;-74
2024/03/21 11:23:43;;;;;;;9.73;6.90;;;;;;;;;;5046686;28;20037;-73
2024/03/21 11:26:11;;;;;;;11.15;7.55;;;;;;;;;;5049420;28;20060;-74
2024/03/21 11:28:37;;;;;;;14.50;8.70;;;;;;;;;;5046222;28;20063;-74
2024/03/21 11:31:02;;;;;;;14.88;9.10;;;;;;;;;;5046592;28;20060;-74
2024/03/21 11:33:31;;;;;;;13.82;8.88;;;;;;;;;;5051015;28;20108;-73
2024/03/21 11:35:56;;;;;;;12.00;7.90;;;;;;;;;;5040469;28;20033;-73
2024/03/21 11:38:21;;;;;;;10.85;7.13;;;;;;;;;;5042712;28;20033;-74
2024/03/21 11:40:48;;;;;;;7.88;5.70;;;;;;;;;;5048416;28;20112;-74
2024/03/21 11:43:14;;;;;;;8.23;5.13;;;;;;;;;;5044113;28;20021;-74
2024/03/21 11:45:39;;;;;;;9.02;5.85;;;;;;;;;;5048837;28;20103;-74
2024/03/21 11:48:11;;;;;;;9.00;6.80;;;;;;;;;;5032570;28;20450;-73
2024/03/21 11:50:38;;;;;;;8.93;6.68;;;;;;;;;;5048494;28;20082;-73
2024/03/21 11:53:04;;;;;;;9.68;6.20;;;;;;;;;;5026514;28;20119;-74
2024/03/21 11:55:29;;;;;;;11.77;7.22;;;;;;;;;;5033267;28;20124;-74
2024/03/21 11:57:55;;;;;;;9.68;6.82;;;;;;;;;;5048533;28;20518;-74
2024/03/21 12:00:20;;;;;;;12.05;8.60;;;;;;;;;;5051335;28;20037;-74
2024/03/21 12:02:46;;;;;;;10.57;7.10;;;;;;;;;;5047895;28;20109;-74
2024/03/21 12:05:11;;;;;;;9.25;7.20;;;;;;;;;;5045706;28;20029;-74
2024/03/21 12:07:41;;;;;;;11.98;7.57;;;;;;;;;;5049750;28;20040;-74
2024/03/21 12:10:07;;;;;;;8.75;5.68;;;;;;;;;;5044438;28;20116;-74
2024/03/21 12:12:32;;;;;;;7.78;4.88;;;;;;;;;;5042981;28;20202;-74
2024/03/21 12:14:57;;;;;;;9.70;6.13;;;;;;;;;;5050295;28;20437;-74
2024/03/21 12:17:23;;;;;;;7.85;5.75;;;;;;;;;;5032789;28;20087;-74
2024/03/21 12:19:48;;;;;;;11.70;6.35;;;;;;;;;;5046932;28;20025;-74
2024/03/21 12:22:13;;;;;;;9.15;6.93;;;;;;;;;;5045157;28;20026;-74
2024/03/21 12:24:39;;;;;;;9.32;5.57;;;;;;;;;;5044386;28;20024;-74
2024/03/21 12:27:05;;;;;;;8.70;5.93;;;;;;;;;;5047553;28;20074;-74
2024/03/21 12:29:30;;;;;;;8.95;5.93;;;;;;;;;;5049225;28;20025;-74
2024/03/21 12:31:55;;;;;;;8.13;5.72;;;;;;;;;;5049542;28;20098;-74
2024/03/21 12:34:21;;;;;;;11.50;5.88;;;;;;;;;;5044055;28;20132;-74
2024/03/21 12:36:46;;;;;;;7.70;5.65;;;;;;;;;;5044806;28;20035;-74
2024/03/21 12:39:14;;;;;;;13.70;8.23;;;;;;;;;;5044320;28;20060;-74
2024/03/21 12:41:40;;;;;;;11.88;7.38;;;;;;;;;;5048523;28;20138;-74
2024/03/21 12:44:05;;;;;;;11.82;8.45;;;;;;;;;;5047744;28;20219;-74
2024/03/21 12:46:30;;;;;;;12.65;8.77;;;;;;;;;;5046964;28;20035;-74
2024/03/21 12:48:55;;;;;;;8.48;5.63;;;;;;;;;;5046632;28;20112;-74
2024/03/21 12:51:20;;;;;;;9.93;7.03;;;;;;;;;;5046652;28;20098;-74
2024/03/21 12:53:46;;;;;;;8.23;6.70;;;;;;;;;;5043275;28;20021;-74
2024/03/21 12:56:12;;;;;;;7.07;4.97;;;;;;;;;;5048948;28;20025;-74
2024/03/21 12:58:37;;;;;;;6.93;5.07;;;;;;;;;;5048534;28;20752;-74
2024/03/21 13:01:02;;;;;;;6.25;4.25;;;;;;;;;;5043811;28;20029;-74
2024/03/21 13:03:28;;;;;;;10.98;5.53;;;;;;;;;;5043967;28;20080;-74
2024/03/21 13:05:53;;;;;;;6.75;4.72;;;;;;;;;;5042632;28;20021;-74
2024/03/21 13:08:18;;;;;;;7.18;4.13;;;;;;;;;;5048000;28;20394;-74
2024/03/21 13:10:43;;;;;;;6.70;4.72;;;;;;;;;;5050140;28;20389;-74
2024/03/21 13:13:08;;;;;;;7.10;4.35;;;;;;;;;;5045664;28;20092;-74
2024/03/21 13:15:34;;;;;;;9.10;5.72;;;;;;;;;;5044896;28;20183;-74
2024/03/21 13:17:59;;;;;;;11.95;5.25;;;;;;;;;;5047676;28;20032;-74
2024/03/21 13:20:26;;;;;;;10.20;6.35;;;;;;;;;;5045136;28;20048;-74
2024/03/21 13:22:51;;;;;;;6.63;4.65;;;;;;;;;;5045996;28;20056;-74
2024/03/21 13:25:19;;;;;;;7.43;5.13;;;;;;;;;;5047295;28;20413;-74
2024/03/21 13:27:44;;;;;;;7.35;4.70;;;;;;;;;;5047355;28;20041;-74
2024/03/21 13:30:10;;;;;;;5.05;3.70;;;;;;;;;;5044813;28;20910;-74
2024/03/21 13:32:35;;;;;;;6.00;4.13;;;;;;;;;;5032884;28;20056;-74
2024/03/21 13:35:00;;;;;;;5.47;3.55;;;;;;;;;;5039960;28;20031;-75
2024/03/21 13:37:26;;;;;;;5.75;3.60;;;;;;;;;;5048078;28;20109;-72
2024/03/21 13:39:51;;;;;;;5.57;3.63;;;;;;;;;;5030363;28;20032;-72
2024/03/21 13:42:16;;;;;;;5.73;4.03;;;;;;;;;;5045683;28;20704;-73
2024/03/21 13:44:41;;;;;;;5.80;3.88;;;;;;;;;;5047531;28;20267;-72
2024/03/21 13:47:07;;;;;;;5.97;4.32;;;;;;;;;;5040905;28;20395;-72
2024/03/21 13:49:32;;;;;;;6.03;4.22;;;;;;;;;;5041887;28;20033;-72
2024/03/21 13:51:57;;;;;;;6.90;4.65;;;;;;;;;;5049323;28;20401;-72
2024/03/21 13:54:24;;;;;;;6.93;3.97;;;;;;;;;;5045162;28;20510;-72
2024/03/21 13:56:49;;;;;;;5.88;4.30;;;;;;;;;;5044507;28;20035;-72
2024/03/21 13:59:15;;;;;;;6.45;4.15;;;;;;;;;;5041895;28;20241;-74
2024/03/21 14:01:40;;;;;;;6.35;4.80;;;;;;;;;;5042932;28;20037;-74
2024/03/21 14:04:06;;;;;;;7.20;5.10;;;;;;;;;;5049095;28;20150;-74
2024/03/21 14:06:31;;;;;;;7.95;4.50;;;;;;;;;;5046694;28;20394;-74
2024/03/21 14:08:57;;;;;;;9.05;5.10;;;;;;;;;;5032038;28;20029;-74
2024/03/21 14:11:22;;;;;;;7.63;5.53;;;;;;;;;;5046146;28;20525;-72
2024/03/21 14:13:49;;;;;;;5.82;4.47;;;;;;;;;;5041052;28;20025;-74
2024/03/21 14:16:15;;;;;;;8.30;6.03;;;;;;;;;;5042133;28;20033;-74
2024/03/21 14:18:40;;;;;;;9.90;6.80;;;;;;;;;;5049211;28;20401;-72
2024/03/21 14:21:06;;;;;;;12.38;7.72;;;;;;;;;;5048347;28;20066;-74